createdAt,value
2022-08-20T00:02:20.325Z,100273.89
2022-08-20T00:04:52.613Z,100279.61
2022-08-20T00:07:24.841Z,100276.95
2022-08-20T00:09:57.140Z,100272.95
2022-08-20T00:12:30.033Z,100273.33
2022-08-20T00:15:02.456Z,100274.27
2022-08-20T00:17:36.927Z,100271.52
2022-08-20T00:20:14.287Z,100269.99
2022-08-20T00:22:46.476Z,100266.01
2022-08-20T00:25:19.995Z,100267.73
2022-08-20T00:27:52.298Z,100268.63
2022-08-20T00:30:25.464Z,100271.14
2022-08-20T00:33:00.880Z,100274.11
2022-08-20T00:35:36.723Z,100271.15
2022-08-20T00:38:09.060Z,100267.65
2022-08-20T00:40:45.005Z,100264.59
2022-08-20T00:43:37.323Z,100261.67
2022-08-20T00:46:12.328Z,100261.76
2022-08-20T00:48:47.921Z,100262.87
2022-08-20T00:51:29.984Z,100256.30
2022-08-20T00:54:08.217Z,100252.31
2022-08-20T00:56:44.147Z,100251.89
2022-08-20T00:59:22.834Z,100255.39
2022-08-20T01:01:56.431Z,100249.56
2022-08-20T01:04:33.812Z,100252.79
2022-08-20T01:07:08.529Z,100253.73
2022-08-20T01:09:58.423Z,100252.80
2022-08-20T01:12:33.661Z,100250.59
2022-08-20T01:15:12.007Z,100252.09
2022-08-20T01:17:47.348Z,100246.63
2022-08-20T01:20:24.216Z,100241.45
2022-08-20T01:23:23.055Z,100240.17
2022-08-20T01:26:00.425Z,100235.17
2022-08-20T01:28:38.326Z,100234.04
2022-08-20T01:31:13.019Z,100235.53
2022-08-20T01:33:46.223Z,100232.36
2022-08-20T01:36:23.839Z,100230.64
2022-08-20T01:38:56.319Z,100232.56
2022-08-20T01:41:40.848Z,100233.83
2022-08-20T01:44:16.887Z,100234.34
2022-08-20T01:46:55.346Z,100231.21
2022-08-20T01:49:34.987Z,100231.70
2022-08-20T01:52:11.558Z,100222.29
2022-08-20T01:54:43.829Z,100222.84
2022-08-20T01:57:18.567Z,100224.52
2022-08-20T01:59:51.611Z,100221.52
2022-08-20T02:02:25.089Z,100220.44
2022-08-20T02:04:58.846Z,100218.56
2022-08-20T02:07:32.556Z,100212.59
2022-08-20T02:10:05.854Z,100210.76
2022-08-20T02:12:39.964Z,100209.10
2022-08-20T02:15:14.353Z,100207.17
2022-08-20T02:17:46.951Z,100202.33
2022-08-20T02:20:25.227Z,100207.15
2022-08-20T02:22:59.860Z,100202.50
2022-08-20T02:25:35.200Z,100204.23
2022-08-20T02:28:07.281Z,100202.90
2022-08-20T02:30:43.907Z,100200.55
2022-08-20T02:33:18.485Z,100204.89
2022-08-20T02:35:53.208Z,100198.30
2022-08-20T02:38:25.502Z,100196.89
2022-08-20T02:40:57.672Z,100191.82
2022-08-20T02:43:32.106Z,100194.23
2022-08-20T02:46:05.035Z,100193.37
2022-08-20T02:48:37.316Z,100197.91
2022-08-20T02:51:10.291Z,100198.11
2022-08-20T02:53:43.234Z,100201.09
2022-08-20T02:56:16.248Z,100205.48
2022-08-20T02:58:48.879Z,100206.05
2022-08-20T03:01:21.315Z,100207.44
2022-08-20T03:03:53.625Z,100208.46
2022-08-20T03:06:26.266Z,100213.45
2022-08-20T03:08:58.987Z,100211.39
2022-08-20T03:11:31.747Z,100216.73
2022-08-20T03:14:03.936Z,100222.62
2022-08-20T03:16:36.112Z,100221.40
2022-08-20T03:19:08.653Z,100228.63
2022-08-20T03:21:40.885Z,100231.27
2022-08-20T03:24:13.176Z,100232.57
2022-08-20T03:26:45.410Z,100233.08
2022-08-20T03:29:17.617Z,100234.14
2022-08-20T03:31:49.849Z,100234.46
2022-08-20T03:34:22.031Z,100241.48
2022-08-20T03:36:54.229Z,100237.60
2022-08-20T03:39:26.427Z,100238.83
2022-08-20T03:41:58.670Z,100240.96
2022-08-20T03:44:30.840Z,100243.19
2022-08-20T03:47:03.936Z,100246.73
2022-08-20T03:49:36.402Z,100241.89
2022-08-20T03:52:09.313Z,100238.27
2022-08-20T03:54:41.608Z,100238.09
2022-08-20T03:57:16.850Z,100241.98
2022-08-20T03:59:49.811Z,100237.70
2022-08-20T04:02:27.498Z,100234.81
2022-08-20T04:04:59.659Z,100236.72
2022-08-20T04:07:31.804Z,100235.95
2022-08-20T04:10:10.042Z,100234.88
2022-08-20T04:12:52.691Z,100237.27
2022-08-20T04:15:25.891Z,100237.31
2022-08-20T04:17:58.300Z,100237.64
2022-08-20T04:20:30.884Z,100235.89
2022-08-20T04:23:02.988Z,100239.72
2022-08-20T04:25:37.052Z,100242.66
2022-08-20T04:28:25.748Z,100241.52
2022-08-20T04:31:00.037Z,100236.91
2022-08-20T04:33:34.016Z,100245.38
2022-08-20T04:36:07.051Z,100242.85
2022-08-20T04:38:48.490Z,100248.72
2022-08-20T04:41:24.392Z,100247.31
2022-08-20T04:43:58.330Z,100254.23
2022-08-20T04:46:32.831Z,100258.50
2022-08-20T04:49:05.193Z,100259.21
2022-08-20T04:51:37.649Z,100255.63
2022-08-20T04:54:09.945Z,100256.77
2022-08-20T04:56:42.264Z,100262.55
2022-08-20T04:59:14.384Z,100268.05
2022-08-20T05:01:46.570Z,100270.15
2022-08-20T05:04:18.759Z,100270.79
2022-08-20T05:06:51.125Z,100267.92
2022-08-20T05:09:23.309Z,100268.16
2022-08-20T05:11:55.543Z,100265.29
2022-08-20T05:14:28.004Z,100262.75
2022-08-20T05:17:03.652Z,100260.10
2022-08-20T05:19:38.960Z,100259.42
2022-08-20T05:22:11.304Z,100256.56
2022-08-20T05:24:43.551Z,100261.63
2022-08-20T05:27:24.785Z,100262.17
2022-08-20T05:30:01.520Z,100260.90
2022-08-20T05:32:35.657Z,100265.01
2022-08-20T05:35:17.095Z,100271.07
2022-08-20T05:37:49.638Z,100274.29
2022-08-20T05:40:23.389Z,100272.88
2022-08-20T05:42:56.010Z,100269.48
2022-08-20T05:45:28.518Z,100269.26
2022-08-20T05:48:01.376Z,100268.34
2022-08-20T05:50:36.243Z,100263.05
2022-08-20T05:53:08.743Z,100262.08
2022-08-20T05:55:41.988Z,100266.99
2022-08-20T05:58:19.804Z,100268.02
2022-08-20T06:00:53.404Z,100272.30
2022-08-20T06:03:43.709Z,100271.35
2022-08-20T06:06:30.224Z,100281.30
2022-08-20T06:09:08.511Z,100281.05
2022-08-20T06:11:40.719Z,100277.73
2022-08-20T06:14:12.951Z,100277.38
2022-08-20T06:16:57.411Z,100273.38
2022-08-20T06:19:32.427Z,100275.35
2022-08-20T06:22:17.644Z,100270.65
2022-08-20T06:24:53.334Z,100267.52
2022-08-20T06:27:26.324Z,100263.70
2022-08-20T06:29:58.516Z,100260.82
2022-08-20T06:32:32.761Z,100259.85
2022-08-20T06:35:07.327Z,100259.82
2022-08-20T06:37:41.573Z,100261.75
2022-08-20T06:40:17.292Z,100263.40
2022-08-20T06:42:49.580Z,100261.48
2022-08-20T06:45:25.330Z,100262.77
2022-08-20T06:48:00.077Z,100257.13
2022-08-20T06:50:43.181Z,100260.45
2022-08-20T06:53:21.960Z,100264.70
2022-08-20T06:55:56.161Z,100266.23
2022-08-20T06:58:37.833Z,100256.34
2022-08-20T07:01:13.871Z,100262.73
2022-08-20T07:03:54.697Z,100264.05
2022-08-20T07:06:28.488Z,100262.88
2022-08-20T07:09:00.728Z,100261.55
2022-08-20T07:11:35.349Z,100260.14
2022-08-20T07:14:07.559Z,100262.18
2022-08-20T07:16:40.232Z,100262.30
2022-08-20T07:19:12.476Z,100265.45
2022-08-20T07:21:44.811Z,100263.31
2022-08-20T07:24:17.005Z,100258.66
2022-08-20T07:26:49.460Z,100263.85
2022-08-20T07:29:21.865Z,100261.53
2022-08-20T07:32:11.339Z,100261.92
2022-08-20T07:34:43.661Z,100257.86
2022-08-20T07:37:17.147Z,100259.62
2022-08-20T07:39:52.607Z,100262.36
2022-08-20T07:42:24.856Z,100252.23
2022-08-20T07:44:57.059Z,100253.85
2022-08-20T07:47:29.282Z,100251.36
2022-08-20T07:50:01.567Z,100249.73
2022-08-20T07:52:35.426Z,100245.35
2022-08-20T07:55:11.257Z,100243.84
2022-08-20T07:57:44.134Z,100241.41
2022-08-20T08:00:19.347Z,100239.59
2022-08-20T08:02:51.555Z,100235.70
2022-08-20T08:05:24.036Z,100232.17
2022-08-20T08:07:57.657Z,100235.48
2022-08-20T08:10:30.495Z,100239.52
2022-08-20T08:13:07.168Z,100234.50
2022-08-20T08:15:41.528Z,100236.64
2022-08-20T08:18:17.524Z,100231.02
2022-08-20T08:20:53.751Z,100227.33
2022-08-20T08:23:32.123Z,100220.79
2022-08-20T08:26:04.699Z,100213.77
2022-08-20T08:28:37.192Z,100208.52
2022-08-20T08:31:09.691Z,100210.44
2022-08-20T08:33:42.519Z,100214.88
2022-08-20T08:36:17.090Z,100216.58
2022-08-20T08:38:47.791Z,100212.77
2022-08-20T08:41:23.024Z,100207.56
2022-08-20T08:43:58.783Z,100204.68
2022-08-20T08:46:33.745Z,100199.23
2022-08-20T08:49:06.057Z,100202.00
2022-08-20T08:51:44.000Z,100198.70
2022-08-20T08:54:19.971Z,100191.33
2022-08-20T08:56:55.787Z,100194.77
2022-08-20T08:59:52.111Z,100186.17
2022-08-20T09:02:27.561Z,100185.92
2022-08-20T09:05:03.081Z,100181.40
2022-08-20T09:07:38.010Z,100179.98
2022-08-20T09:10:13.115Z,100183.55
2022-08-20T09:12:47.832Z,100186.45
2022-08-20T09:15:21.365Z,100186.05
2022-08-20T09:17:54.019Z,100178.15
2022-08-20T09:20:27.002Z,100181.24
2022-08-20T09:22:59.759Z,100177.62
2022-08-20T09:25:32.096Z,100174.25
2022-08-20T09:28:04.460Z,100178.06
2022-08-20T09:30:37.547Z,100170.95
2022-08-20T09:33:10.600Z,100170.19
2022-08-20T09:35:44.951Z,100168.52
2022-08-20T09:38:17.217Z,100166.77
2022-08-20T09:40:49.413Z,100163.80
2022-08-20T09:43:21.656Z,100162.34
2022-08-20T09:45:53.892Z,100158.91
2022-08-20T09:48:31.858Z,100159.92
2022-08-20T09:51:05.416Z,100155.30
2022-08-20T09:53:38.006Z,100154.99
2022-08-20T09:56:11.587Z,100151.15
2022-08-20T09:58:51.076Z,100147.64
2022-08-20T10:01:24.342Z,100144.04
2022-08-20T10:03:56.597Z,100142.02
2022-08-20T10:06:28.802Z,100141.39
2022-08-20T10:09:01.048Z,100144.27
2022-08-20T10:11:33.243Z,100141.58
2022-08-20T10:14:05.585Z,100137.77
2022-08-20T10:16:38.568Z,100135.11
2022-08-20T10:19:10.780Z,100129.42
2022-08-20T10:21:43.618Z,100133.77
2022-08-20T10:24:15.819Z,100132.29
2022-08-20T10:26:48.628Z,100129.98
2022-08-20T10:29:20.875Z,100131.14
2022-08-20T10:31:53.080Z,100123.43
2022-08-20T10:34:25.587Z,100124.06
2022-08-20T10:36:59.190Z,100124.30
2022-08-20T10:39:31.554Z,100125.78
2022-08-20T10:42:04.460Z,100120.71
2022-08-20T10:44:36.284Z,100114.13
2022-08-20T10:47:21.756Z,100111.59
2022-08-20T10:49:56.611Z,100108.80
2022-08-20T10:52:29.775Z,100110.09
2022-08-20T10:55:04.367Z,100108.70
2022-08-20T10:57:34.907Z,100111.53
2022-08-20T11:00:09.123Z,100110.41
2022-08-20T11:02:41.820Z,100107.43
2022-08-20T11:05:13.989Z,100105.43
2022-08-20T11:07:55.314Z,100099.54
2022-08-20T11:10:31.192Z,100097.02
2022-08-20T11:13:01.863Z,100087.95
2022-08-20T11:15:35.151Z,100082.30
2022-08-20T11:18:07.952Z,100087.44
2022-08-20T11:20:40.538Z,100087.52
2022-08-20T11:23:13.010Z,100087.43
2022-08-20T11:25:45.177Z,100085.75
2022-08-20T11:28:17.770Z,100084.16
2022-08-20T11:31:04.582Z,100087.41
2022-08-20T11:33:36.771Z,100089.08
2022-08-20T11:36:09.971Z,100090.55
2022-08-20T11:38:42.143Z,100087.14
2022-08-20T11:41:14.536Z,100085.05
2022-08-20T11:44:04.715Z,100083.14
2022-08-20T11:46:38.906Z,100081.64
2022-08-20T11:49:11.143Z,100082.72
2022-08-20T11:51:49.830Z,100080.08
2022-08-20T11:54:22.649Z,100075.33
2022-08-20T11:56:54.883Z,100070.58
2022-08-20T11:59:27.798Z,100065.76
2022-08-20T12:02:02.746Z,100061.34
2022-08-20T12:04:35.824Z,100055.88
2022-08-20T12:07:13.518Z,100058.28
2022-08-20T12:09:51.342Z,100061.98
2022-08-20T12:12:25.272Z,100055.14
2022-08-20T12:14:57.925Z,100052.35
2022-08-20T12:17:32.932Z,100048.10
2022-08-20T12:20:09.024Z,100041.39
2022-08-20T12:22:41.233Z,100041.94
2022-08-20T12:25:14.272Z,100042.96
2022-08-20T12:27:47.290Z,100039.55
2022-08-20T12:30:21.813Z,100034.44
2022-08-20T12:32:54.383Z,100031.01
2022-08-20T12:35:28.397Z,100025.98
2022-08-20T12:38:06.937Z,100021.35
2022-08-20T12:40:39.619Z,100016.67
2022-08-20T12:43:11.807Z,100021.19
2022-08-20T12:45:44.022Z,100018.28
2022-08-20T12:48:16.703Z,100016.66
2022-08-20T12:50:50.283Z,100014.96
2022-08-20T12:53:22.815Z,100012.15
2022-08-20T12:55:55.084Z,100009.72
2022-08-20T12:58:27.301Z,100004.67
2022-08-20T13:00:59.554Z,100001.02
2022-08-20T13:03:32.327Z,99999.61
2022-08-20T13:06:05.568Z,99997.23
2022-08-20T13:08:37.908Z,99996.94
2022-08-20T13:11:10.182Z,99991.21
2022-08-20T13:13:43.661Z,99987.56
2022-08-20T13:16:16.869Z,99984.48
2022-08-20T13:18:49.105Z,99977.56
2022-08-20T13:21:23.971Z,99973.52
2022-08-20T13:23:56.451Z,99974.16
2022-08-20T13:26:28.622Z,99971.66
2022-08-20T13:29:03.316Z,99971.21
2022-08-20T13:31:35.481Z,99964.72
2022-08-20T13:34:07.778Z,99961.73
2022-08-20T13:36:40.956Z,99962.02
2022-08-20T13:39:13.149Z,99958.92
2022-08-20T13:41:45.419Z,99959.51
2022-08-20T13:44:18.483Z,99963.56
2022-08-20T13:46:50.719Z,99961.84
2022-08-20T13:49:23.071Z,99961.59
2022-08-20T13:51:55.259Z,99958.80
2022-08-20T13:54:30.274Z,99957.34
2022-08-20T13:57:10.033Z,99959.27
2022-08-20T13:59:44.268Z,99951.29
2022-08-20T14:02:17.652Z,99945.59
2022-08-20T14:04:50.760Z,99945.77
2022-08-20T14:07:28.760Z,99940.15
2022-08-20T14:10:07.134Z,99938.20
2022-08-20T14:12:39.339Z,99936.52
2022-08-20T14:15:14.002Z,99935.31
2022-08-20T14:17:49.999Z,99931.21
2022-08-20T14:20:25.409Z,99929.45
2022-08-20T14:23:02.591Z,99927.83
2022-08-20T14:25:36.149Z,99930.71
2022-08-20T14:28:18.245Z,99929.26
2022-08-20T14:30:53.455Z,99922.40
2022-08-20T14:33:27.108Z,99923.76
2022-08-20T14:35:59.227Z,99930.27
2022-08-20T14:38:31.529Z,99929.34
2022-08-20T14:41:03.796Z,99930.13
2022-08-20T14:43:35.988Z,99928.27
2022-08-20T14:46:08.423Z,99921.98
2022-08-20T14:48:40.604Z,99915.38
2022-08-20T14:51:12.827Z,99914.55
2022-08-20T14:53:45.046Z,99913.21
2022-08-20T14:56:18.155Z,99915.19
2022-08-20T14:58:50.784Z,99914.45
2022-08-20T15:01:22.996Z,99912.96
2022-08-20T15:03:55.358Z,99912.52
2022-08-20T15:06:27.633Z,99908.51
2022-08-20T15:09:00.302Z,99909.86
2022-08-20T15:11:34.668Z,99907.75
2022-08-20T15:14:06.997Z,99908.96
2022-08-20T15:16:40.996Z,99904.44
2022-08-20T15:19:13.160Z,99903.65
2022-08-20T15:21:45.859Z,99903.95
2022-08-20T15:24:19.306Z,99907.71
2022-08-20T15:26:51.980Z,99904.89
2022-08-20T15:29:24.128Z,99903.25
2022-08-20T15:31:56.308Z,99906.41
2022-08-20T15:34:29.192Z,99909.54
2022-08-20T15:37:07.063Z,99913.61
2022-08-20T15:39:39.874Z,99910.75
2022-08-20T15:42:13.676Z,99911.85
2022-08-20T15:44:46.705Z,99914.55
2022-08-20T15:47:24.933Z,99911.68
2022-08-20T15:50:02.711Z,99909.90
2022-08-20T15:52:41.867Z,99911.45
2022-08-20T15:55:17.560Z,99908.27
2022-08-20T15:57:56.863Z,99910.54
2022-08-20T16:00:41.730Z,99909.61
2022-08-20T16:03:46.644Z,99908.88
2022-08-20T16:06:26.272Z,99913.39
2022-08-20T16:09:15.795Z,99916.16
2022-08-20T16:11:56.224Z,99912.68
2022-08-20T16:14:33.732Z,99918.42
2022-08-20T16:17:11.003Z,99921.48
2022-08-20T16:19:52.299Z,99925.63
2022-08-20T16:22:25.444Z,99929.72
2022-08-20T16:24:57.923Z,99931.29
2022-08-20T16:27:40.699Z,99932.66
2022-08-20T16:30:21.774Z,99934.88
2022-08-20T16:33:01.923Z,99936.27
2022-08-20T16:35:38.852Z,99935.27
2022-08-20T16:38:21.382Z,99934.80
2022-08-20T16:40:57.463Z,99939.69
2022-08-20T16:43:38.105Z,99944.02
2022-08-20T16:46:17.884Z,99945.45
2022-08-20T16:48:58.223Z,99947.20
2022-08-20T16:51:49.426Z,99946.26
2022-08-20T16:54:29.675Z,99944.69
2022-08-20T16:57:07.399Z,99950.39
2022-08-20T16:59:57.588Z,99955.14
2022-08-20T17:02:30.188Z,99954.05
2022-08-20T17:05:06.629Z,99959.95
2022-08-20T17:07:49.444Z,99966.19
2022-08-20T17:10:27.475Z,99969.52
2022-08-20T17:13:04.278Z,99969.11
2022-08-20T17:15:39.922Z,99970.71
2022-08-20T17:18:23.907Z,99974.98
2022-08-20T17:21:01.712Z,99973.02
2022-08-20T17:23:54.585Z,99971.83
2022-08-20T17:26:35.414Z,99973.79
2022-08-20T17:29:16.338Z,99979.88
2022-08-20T17:31:51.677Z,99982.09
2022-08-20T17:34:26.479Z,99979.70
2022-08-20T17:37:02.136Z,99982.73
2022-08-20T17:39:34.487Z,99979.95
2022-08-20T17:42:11.842Z,99980.20
2022-08-20T17:44:49.480Z,99983.64
2022-08-20T17:47:25.559Z,99985.99
2022-08-20T17:50:03.269Z,99985.50
2022-08-20T17:52:40.420Z,99984.12
2022-08-20T17:55:14.036Z,99987.07
2022-08-20T17:57:49.759Z,99986.51
2022-08-20T18:00:25.861Z,99987.78
2022-08-20T18:03:03.152Z,99986.36
2022-08-20T18:05:38.868Z,99984.31
2022-08-20T18:08:28.958Z,99987.75
2022-08-20T18:11:10.066Z,99982.52
2022-08-20T18:13:52.212Z,99977.02
2022-08-20T18:16:30.843Z,99986.54
2022-08-20T18:19:15.246Z,99988.79
2022-08-20T18:22:11.244Z,99985.20
2022-08-20T18:24:52.420Z,99982.93
2022-08-20T18:27:26.862Z,99984.63
2022-08-20T18:30:01.973Z,99984.20
2022-08-20T18:32:37.014Z,99990.80
2022-08-20T18:35:12.454Z,99992.13
2022-08-20T18:37:44.627Z,99996.88
2022-08-20T18:40:33.242Z,99996.96
2022-08-20T18:43:15.428Z,100001.53
2022-08-20T18:45:47.688Z,100007.83
2022-08-20T18:48:25.996Z,100011.67
2022-08-20T18:50:59.719Z,100010.38
2022-08-20T18:53:34.673Z,100014.06
2022-08-20T18:56:06.208Z,100019.73
2022-08-20T18:58:51.424Z,100017.27
2022-08-20T19:01:25.298Z,100020.88
2022-08-20T19:03:59.372Z,100022.16
2022-08-20T19:06:46.460Z,100022.27
2022-08-20T19:09:27.740Z,100029.63
2022-08-20T19:12:10.486Z,100035.16
2022-08-20T19:15:02.090Z,100036.73
2022-08-20T19:17:58.124Z,100039.43
2022-08-20T19:20:33.589Z,100045.13
2022-08-20T19:23:10.532Z,100049.66
2022-08-20T19:25:53.880Z,100053.64
2022-08-20T19:28:30.146Z,100056.14
2022-08-20T19:31:14.103Z,100057.96
2022-08-20T19:33:47.076Z,100052.95
2022-08-20T19:36:22.170Z,100060.57
2022-08-20T19:38:58.768Z,100063.77
2022-08-20T19:41:33.496Z,100064.73
2022-08-20T19:44:05.760Z,100065.91
2022-08-20T19:46:40.679Z,100065.79
2022-08-20T19:49:21.787Z,100063.23
2022-08-20T19:52:04.991Z,100060.19
2022-08-20T19:54:49.999Z,100060.86
2022-08-20T19:57:24.264Z,100060.17
2022-08-20T19:59:59.324Z,100056.73
2022-08-20T20:02:35.401Z,100058.20
2022-08-20T20:05:12.129Z,100052.56
2022-08-20T20:07:47.269Z,100050.89
2022-08-20T20:10:24.747Z,100051.81
2022-08-20T20:12:57.074Z,100048.34
2022-08-20T20:15:29.771Z,100046.70
2022-08-20T20:18:02.644Z,100043.20
2022-08-20T20:20:38.611Z,100039.66
2022-08-20T20:23:38.830Z,100033.55
2022-08-20T20:26:21.439Z,100032.19
2022-08-20T20:28:56.052Z,100030.63
2022-08-20T20:31:31.617Z,100026.98
2022-08-20T20:34:11.027Z,100021.77
2022-08-20T20:36:46.232Z,100017.70
2022-08-20T20:39:28.447Z,100019.02
2022-08-20T20:42:03.603Z,100017.23
2022-08-20T20:44:38.536Z,100017.24
2022-08-20T20:47:21.043Z,100020.58
2022-08-20T20:49:56.215Z,100028.39
2022-08-20T20:52:29.200Z,100029.11
2022-08-20T20:55:13.292Z,100029.48
2022-08-20T20:57:45.487Z,100033.58
2022-08-20T21:00:21.364Z,100035.38
2022-08-20T21:02:54.085Z,100030.19
2022-08-20T21:05:28.787Z,100027.34
2022-08-20T21:08:03.403Z,100026.52
2022-08-20T21:10:38.403Z,100027.72
2022-08-20T21:13:11.920Z,100022.75
2022-08-20T21:15:44.142Z,100018.60
2022-08-20T21:18:16.327Z,100018.04
2022-08-20T21:20:50.860Z,100007.92
2022-08-20T21:23:40.211Z,100006.55
2022-08-20T21:26:14.383Z,100006.27
2022-08-20T21:28:46.659Z,100005.99
2022-08-20T21:31:18.927Z,100002.39
2022-08-20T21:33:51.128Z,100000.85
2022-08-20T21:36:23.266Z,100000.79
2022-08-20T21:38:55.512Z,100004.02
2022-08-20T21:41:30.160Z,100008.31
2022-08-20T21:44:07.098Z,100018.06
2022-08-20T21:46:39.312Z,100016.91
2022-08-20T21:49:11.512Z,100019.14
2022-08-20T21:51:43.791Z,100020.98
2022-08-20T21:54:15.940Z,100023.21
2022-08-20T21:56:50.739Z,100023.70
2022-08-20T21:59:25.318Z,100018.83
2022-08-20T22:01:58.119Z,100023.95
2022-08-20T22:04:35.230Z,100023.22
2022-08-20T22:07:08.411Z,100023.54
2022-08-20T22:09:40.618Z,100023.15
2022-08-20T22:12:19.071Z,100019.75
2022-08-20T22:14:51.684Z,100020.92
2022-08-20T22:17:23.923Z,100019.70
2022-08-20T22:19:56.198Z,100018.60
2022-08-20T22:22:28.418Z,100016.62
2022-08-20T22:25:00.567Z,100018.08
2022-08-20T22:27:32.918Z,100022.54
2022-08-20T22:30:05.399Z,100021.48
2022-08-20T22:32:50.465Z,100020.11
2022-08-20T22:35:24.244Z,100019.79
2022-08-20T22:37:56.416Z,100019.33
2022-08-20T22:40:28.679Z,100021.00
2022-08-20T22:43:01.058Z,100019.35
2022-08-20T22:45:33.540Z,100020.04
2022-08-20T22:48:06.942Z,100015.56
2022-08-20T22:50:39.991Z,100014.59
2022-08-20T22:53:14.256Z,100017.03
2022-08-20T22:55:46.747Z,100016.98
2022-08-20T22:58:20.422Z,100012.95
2022-08-20T23:01:05.212Z,100012.27
2022-08-20T23:03:39.733Z,100011.98
2022-08-20T23:06:13.807Z,100007.39
2022-08-20T23:08:46.208Z,100006.14
2022-08-20T23:11:18.352Z,100009.06
2022-08-20T23:13:50.589Z,100011.75
2022-08-20T23:16:22.813Z,100010.88
2022-08-20T23:18:55.339Z,100011.73
2022-08-20T23:21:28.547Z,100016.09
2022-08-20T23:24:00.731Z,100012.80
2022-08-20T23:26:33.027Z,100014.96
2022-08-20T23:29:05.285Z,100016.83
2022-08-20T23:31:37.463Z,100021.17
2022-08-20T23:34:09.883Z,100016.96
2022-08-20T23:36:42.137Z,100016.80
2022-08-20T23:39:14.671Z,100017.58
2022-08-20T23:41:47.729Z,100015.77
2022-08-20T23:44:26.494Z,100013.75
2022-08-20T23:47:03.263Z,100012.95
2022-08-20T23:49:35.480Z,100011.66
2022-08-20T23:52:07.952Z,100008.48
2022-08-20T23:54:40.140Z,100009.77
2022-08-20T23:57:12.394Z,100011.83
2022-08-20T23:59:46.221Z,100021.03
